Time;durP1;ratioP1;P1;durP2;ratioP2;P2;SDS_P1;SDS_P2;PMS_P1;PMS_P2;Temp;Humidity;BMP_temperature;BMP_pressure;BME280_temperature;BME280_humidity;BME280_pressure;Samples;Min_cycle;Max_cycle;Signal;HPM_P1;HPM_P2
2023/12/05 00:00:28;;;;;;;12.50;6.97;;;6.60;99.90;;;;;;5072349;28;20760;-51
2023/12/05 00:02:53;;;;;;;13.73;7.65;;;6.60;99.90;;;;;;5080434;28;20020;-45
2023/12/05 00:05:19;;;;;;;11.32;7.22;;;6.60;99.90;;;;;;5053326;28;20053;-52
2023/12/05 00:07:44;;;;;;;11.43;6.45;;;6.70;99.90;;;;;;5073759;28;20096;-44
2023/12/05 00:10:10;;;;;;;12.75;7.25;;;6.70;99.90;;;;;;5053212;28;20902;-47
2023/12/05 00:12:36;;;;;;;15.25;7.50;;;6.60;99.90;;;;;;5053074;28;20504;-46
2023/12/05 00:15:02;;;;;;;13.10;6.97;;;6.60;99.90;;;;;;5052800;28;20021;-50
2023/12/05 00:17:27;;;;;;;15.73;6.55;;;6.60;99.90;;;;;;5052772;28;20025;-52
2023/12/05 00:19:53;;;;;;;15.38;7.30;;;6.60;99.90;;;;;;5067758;28;20375;-46
2023/12/05 00:22:18;;;;;;;12.50;7.82;;;6.70;99.90;;;;;;5052792;28;20033;-46
2023/12/05 00:24:44;;;;;;;14.30;7.05;;;6.60;99.90;;;;;;5052776;28;20104;-46
2023/12/05 00:27:10;;;;;;;12.93;7.43;;;6.60;99.90;;;;;;5052841;28;20401;-47
2023/12/05 00:29:37;;;;;;;12.13;7.25;;;6.60;99.90;;;;;;5052737;28;20424;-50
2023/12/05 00:32:03;;;;;;;14.93;8.07;;;6.60;99.90;;;;;;5059488;28;20035;-53
2023/12/05 00:34:28;;;;;;;16.75;8.07;;;6.60;99.90;;;;;;5072652;28;20029;-53
2023/12/05 00:36:54;;;;;;;14.85;8.15;;;6.60;99.90;;;;;;5061643;28;20017;-44
2023/12/05 00:39:20;;;;;;;16.05;8.80;;;6.60;99.90;;;;;;5061017;28;20573;-46
2023/12/05 00:41:47;;;;;;;15.00;7.18;;;6.60;99.90;;;;;;5086586;28;20443;-44
2023/12/05 00:44:13;;;;;;;17.25;7.80;;;6.60;99.90;;;;;;5072275;28;20032;-48
2023/12/05 00:46:39;;;;;;;12.85;7.82;;;6.70;99.90;;;;;;5072530;28;20017;-50
2023/12/05 00:49:04;;;;;;;15.48;8.20;;;6.70;99.90;;;;;;5072334;28;20024;-51
2023/12/05 00:51:31;;;;;;;13.18;6.93;;;6.60;99.90;;;;;;5072376;28;20032;-47
2023/12/05 00:53:57;;;;;;;18.60;8.80;;;6.60;99.90;;;;;;5072292;28;20078;-50
2023/12/05 00:56:22;;;;;;;16.35;8.35;;;6.60;99.90;;;;;;5072326;28;20087;-48
2023/12/05 00:58:48;;;;;;;14.18;7.43;;;6.60;99.90;;;;;;5071942;28;20024;-47
2023/12/05 01:01:14;;;;;;;12.13;6.50;;;6.60;99.90;;;;;;5072053;28;20027;-50
2023/12/05 01:03:39;;;;;;;17.40;8.50;;;6.60;99.90;;;;;;5072119;28;20009;-44
2023/12/05 01:06:05;;;;;;;13.85;8.35;;;6.60;99.90;;;;;;5072063;28;20035;-51
2023/12/05 01:08:31;;;;;;;16.38;8.02;;;6.60;99.90;;;;;;5072105;28;20024;-47
2023/12/05 01:10:56;;;;;;;13.85;7.43;;;6.60;99.90;;;;;;5071891;28;20110;-47
2023/12/05 01:13:24;;;;;;;12.80;7.07;;;6.60;99.90;;;;;;5053935;28;20367;-45
2023/12/05 01:15:50;;;;;;;12.98;6.40;;;6.50;99.90;;;;;;5071814;28;20111;-46
2023/12/05 01:18:15;;;;;;;14.82;7.78;;;6.50;99.90;;;;;;5072069;28;20035;-52
2023/12/05 01:20:41;;;;;;;13.48;6.22;;;6.60;99.90;;;;;;5071812;28;20482;-46
2023/12/05 01:23:07;;;;;;;11.45;5.72;;;6.50;99.90;;;;;;5071850;28;20497;-47
2023/12/05 01:25:32;;;;;;;10.32;5.18;;;6.50;99.90;;;;;;5071765;28;20104;-54
2023/12/05 01:27:58;;;;;;;11.63;5.70;;;6.50;99.90;;;;;;5071505;28;20442;-48
2023/12/05 01:30:24;;;;;;;9.38;5.15;;;6.50;99.90;;;;;;5071443;28;20033;-44
2023/12/05 01:32:50;;;;;;;10.48;5.30;;;6.50;99.90;;;;;;5071537;28;20020;-44
2023/12/05 01:35:16;;;;;;;12.57;5.35;;;6.50;99.90;;;;;;5071477;28;20029;-52
2023/12/05 01:37:42;;;;;;;10.68;4.97;;;6.50;99.90;;;;;;5042795;28;20034;-46
2023/12/05 01:40:09;;;;;;;9.82;5.25;;;6.50;99.90;;;;;;5031395;28;20044;-47
2023/12/05 01:42:38;;;;;;;10.02;5.10;;;6.50;99.90;;;;;;5031464;28;20029;-47
2023/12/05 01:45:05;;;;;;;9.05;4.85;;;6.50;99.90;;;;;;5031324;28;20090;-46
2023/12/05 01:47:35;;;;;;;9.10;4.80;;;6.50;99.90;;;;;;5031669;28;20068;-54
2023/12/05 01:50:01;;;;;;;8.88;4.75;;;6.50;99.90;;;;;;5031692;28;20057;-48
2023/12/05 01:52:27;;;;;;;10.75;5.13;;;6.50;99.90;;;;;;5031314;28;20021;-47
2023/12/05 01:54:52;;;;;;;13.30;4.15;;;6.50;99.90;;;;;;5031423;28;20066;-46
2023/12/05 01:57:20;;;;;;;7.30;4.13;;;6.50;99.90;;;;;;5031129;28;20119;-44
2023/12/05 01:59:45;;;;;;;7.75;3.90;;;6.50;99.90;;;;;;5031198;28;20041;-48
2023/12/05 02:02:12;;;;;;;7.80;4.38;;;6.50;99.90;;;;;;5031292;28;20028;-50
2023/12/05 02:04:39;;;;;;;8.20;4.70;;;6.50;99.90;;;;;;5031255;28;20475;-45
2023/12/05 02:07:06;;;;;;;7.20;4.32;;;6.50;99.90;;;;;;5031099;28;20025;-52
2023/12/05 02:09:32;;;;;;;7.00;4.07;;;6.50;99.90;;;;;;5031004;28;20100;-48
2023/12/05 02:11:58;;;;;;;7.40;4.30;;;6.50;99.90;;;;;;5031058;28;20108;-44
2023/12/05 02:14:24;;;;;;;7.15;4.25;;;6.50;99.90;;;;;;5030605;28;20024;-50
2023/12/05 02:17:00;;;;;;;8.07;4.72;;;6.50;99.90;;;;;;5031215;28;20029;-49
2023/12/05 02:19:52;;;;;;;8.55;3.90;;;6.40;99.90;;;;;;5030870;28;20494;-44
2023/12/05 02:22:24;;;;;;;8.13;4.25;;;6.40;99.90;;;;;;5030879;28;20025;-48
2023/12/05 02:24:56;;;;;;;7.28;4.28;;;6.40;99.90;;;;;;5030891;28;20017;-51
2023/12/05 02:27:41;;;;;;;7.82;4.45;;;6.50;99.90;;;;;;5030791;28;20021;-54
2023/12/05 02:30:14;;;;;;;7.88;4.28;;;6.50;99.90;;;;;;5017479;28;20116;-44
2023/12/05 02:32:40;;;;;;;7.45;4.45;;;6.50;99.90;;;;;;5030744;28;20028;-49
2023/12/05 02:35:06;;;;;;;6.80;3.83;;;6.50;99.90;;;;;;5029450;28;20135;-47
2023/12/05 02:37:44;;;;;;;10.18;4.60;;;6.50;99.90;;;;;;5042341;28;20044;-50
2023/12/05 02:40:26;;;;;;;6.95;3.90;;;6.50;99.90;;;;;;5070244;28;20473;-53
2023/12/05 02:42:55;;;;;;;5.45;3.63;;;6.40;99.90;;;;;;5070534;28;20524;-47
2023/12/05 02:45:23;;;;;;;7.65;3.70;;;6.50;99.90;;;;;;5069931;28;20086;-45
2023/12/05 02:47:49;;;;;;;7.80;4.10;;;6.40;99.90;;;;;;5070543;28;20477;-45
2023/12/05 02:50:17;;;;;;;7.10;3.63;;;6.40;99.90;;;;;;5070353;28;20020;-44
2023/12/05 02:52:42;;;;;;;5.47;3.17;;;6.40;99.90;;;;;;5070463;28;20032;-51
2023/12/05 02:55:08;;;;;;;7.38;3.80;;;6.40;99.90;;;;;;5069748;28;20021;-48
2023/12/05 02:57:34;;;;;;;7.95;4.03;;;6.40;99.90;;;;;;5070245;28;20025;-46
2023/12/05 02:59:59;;;;;;;6.97;3.28;;;6.40;99.90;;;;;;5051925;28;20507;-48
2023/12/05 03:02:25;;;;;;;5.65;3.30;;;6.40;99.90;;;;;;5070171;28;20036;-55
2023/12/05 03:04:51;;;;;;;5.72;3.17;;;6.40;99.90;;;;;;5070238;28;20039;-49
2023/12/05 03:07:16;;;;;;;5.75;3.42;;;6.40;99.90;;;;;;5070167;28;20412;-49
2023/12/05 03:09:42;;;;;;;8.43;3.70;;;6.40;99.90;;;;;;5070248;28;20032;-52
2023/12/05 03:12:07;;;;;;;6.97;3.78;;;6.40;99.90;;;;;;5070154;28;20020;-49
2023/12/05 03:14:33;;;;;;;6.78;3.30;;;6.40;99.90;;;;;;5069698;28;20028;-47
2023/12/05 03:16:59;;;;;;;5.43;3.20;;;6.40;99.90;;;;;;5070173;28;20012;-49
2023/12/05 03:19:24;;;;;;;6.95;3.70;;;6.40;99.90;;;;;;5070129;28;20033;-48
2023/12/05 03:21:50;;;;;;;7.07;3.53;;;6.40;99.90;;;;;;5070363;28;20094;-44
2023/12/05 03:24:16;;;;;;;6.93;4.00;;;6.40;99.90;;;;;;5070451;28;20115;-50
2023/12/05 03:26:42;;;;;;;6.93;3.35;;;6.40;99.90;;;;;;5070681;28;20523;-47
2023/12/05 03:29:08;;;;;;;6.53;3.50;;;6.40;99.90;;;;;;5068440;28;20025;-51
2023/12/05 03:31:35;;;;;;;7.53;3.63;;;6.40;99.90;;;;;;5070136;28;20032;-46
2023/12/05 03:34:02;;;;;;;5.25;2.78;;;6.40;99.90;;;;;;5069821;28;20036;-52
2023/12/05 03:36:27;;;;;;;6.72;3.40;;;6.40;99.90;;;;;;5069847;28;20462;-43
2023/12/05 03:38:53;;;;;;;7.32;3.85;;;6.40;99.90;;;;;;5069714;28;20055;-44
2023/12/05 03:41:19;;;;;;;7.07;2.97;;;6.40;99.90;;;;;;5069916;28;20440;-49
2023/12/05 03:43:44;;;;;;;4.70;2.83;;;6.40;99.90;;;;;;5069475;28;20362;-45
2023/12/05 03:46:10;;;;;;;8.20;3.60;;;6.40;99.90;;;;;;5069940;28;20020;-53
2023/12/05 03:48:36;;;;;;;5.88;3.08;;;6.40;99.90;;;;;;5069619;28;20027;-44
2023/12/05 03:51:02;;;;;;;6.32;3.25;;;6.40;99.90;;;;;;5069973;28;20099;-48
2023/12/05 03:53:28;;;;;;;5.15;2.88;;;6.40;99.90;;;;;;5069699;28;20041;-44
2023/12/05 03:55:54;;;;;;;6.75;3.20;;;6.40;99.90;;;;;;5069868;28;20029;-48
2023/12/05 03:58:21;;;;;;;6.70;3.30;;;6.40;99.90;;;;;;5069628;28;20067;-54
2023/12/05 04:00:46;;;;;;;9.98;3.17;;;6.40;99.90;;;;;;5069622;28;20500;-48
2023/12/05 04:03:13;;;;;;;5.13;2.90;;;6.40;99.90;;;;;;5051757;28;20016;-47
2023/12/05 04:05:39;;;;;;;5.80;3.22;;;6.40;99.90;;;;;;5069554;28;20054;-47
2023/12/05 04:08:05;;;;;;;6.38;2.90;;;6.40;99.90;;;;;;5072915;28;20029;-46
2023/12/05 04:10:31;;;;;;;5.20;2.63;;;6.40;99.90;;;;;;5073121;28;20028;-47
2023/12/05 04:12:56;;;;;;;4.10;2.47;;;6.40;99.90;;;;;;5073138;28;20020;-47
2023/12/05 04:15:22;;;;;;;5.13;3.15;;;6.40;99.90;;;;;;5073038;28;20058;-44
2023/12/05 04:17:48;;;;;;;5.00;2.80;;;6.40;99.90;;;;;;5073065;28;20025;-51
2023/12/05 04:20:14;;;;;;;5.45;3.03;;;6.40;99.90;;;;;;5072979;28;20115;-50
2023/12/05 04:22:39;;;;;;;6.65;2.90;;;6.40;99.90;;;;;;5073008;28;20051;-52
2023/12/05 04:25:05;;;;;;;6.35;3.35;;;6.40;99.90;;;;;;5072953;28;20419;-45
2023/12/05 04:27:32;;;;;;;7.45;3.40;;;6.40;99.90;;;;;;5072888;28;20071;-52
2023/12/05 04:29:57;;;;;;;6.75;3.30;;;6.40;99.90;;;;;;5072644;28;20048;-46
2023/12/05 04:32:23;;;;;;;6.20;3.30;;;6.30;99.90;;;;;;5072829;28;20448;-51
2023/12/05 04:34:49;;;;;;;7.65;3.70;;;6.30;99.90;;;;;;5072807;28;20024;-44
2023/12/05 04:37:15;;;;;;;6.65;3.28;;;6.30;99.90;;;;;;5072568;28;20043;-54
2023/12/05 04:39:40;;;;;;;8.93;3.13;;;6.30;99.90;;;;;;5072487;28;20124;-49
2023/12/05 04:42:06;;;;;;;6.80;3.53;;;6.30;99.90;;;;;;5072564;28;20039;-46
2023/12/05 04:44:32;;;;;;;5.43;3.05;;;6.30;99.90;;;;;;5072488;28;20483;-44
2023/12/05 04:46:58;;;;;;;6.88;3.50;;;6.30;99.90;;;;;;5072632;28;20023;-51
2023/12/05 04:49:24;;;;;;;5.57;3.03;;;6.40;99.90;;;;;;5072674;28;20465;-44
2023/12/05 04:51:50;;;;;;;6.72;3.03;;;6.30;99.90;;;;;;5072411;28;20126;-49
2023/12/05 04:54:15;;;;;;;5.05;3.00;;;6.40;99.90;;;;;;5072438;28;20044;-47
2023/12/05 04:56:42;;;;;;;6.25;3.70;;;6.40;99.90;;;;;;5072188;28;20070;-44
2023/12/05 04:59:08;;;;;;;6.15;3.33;;;6.30;99.90;;;;;;5087718;28;20405;-46
2023/12/05 05:01:33;;;;;;;7.07;3.47;;;6.30;99.90;;;;;;5072137;28;20028;-47
2023/12/05 05:03:59;;;;;;;5.95;3.30;;;6.40;99.90;;;;;;5072186;28;20103;-48
2023/12/05 05:06:25;;;;;;;10.50;3.40;;;6.40;99.90;;;;;;5072071;28;20020;-52
2023/12/05 05:08:51;;;;;;;8.93;3.63;;;6.40;99.90;;;;;;5072013;28;20028;-47
2023/12/05 05:11:16;;;;;;;6.47;3.53;;;6.40;99.90;;;;;;5072150;28;20036;-54
2023/12/05 05:13:42;;;;;;;4.97;2.90;;;6.30;99.90;;;;;;5071701;28;20432;-52
2023/12/05 05:16:10;;;;;;;6.03;2.92;;;6.30;99.90;;;;;;5071956;28;20021;-50
2023/12/05 05:18:37;;;;;;;5.40;3.13;;;6.30;99.90;;;;;;5071425;28;20033;-46
2023/12/05 05:21:06;;;;;;;7.65;3.33;;;6.30;99.90;;;;;;5071872;28;20040;-50
2023/12/05 05:23:35;;;;;;;5.30;3.08;;;6.30;99.90;;;;;;5071947;28;20024;-48
2023/12/05 05:26:01;;;;;;;5.93;3.47;;;6.30;99.90;;;;;;5071752;28;20025;-53
2023/12/05 05:28:26;;;;;;;4.65;2.55;;;6.30;99.90;;;;;;5071540;28;20032;-48
2023/12/05 05:30:55;;;;;;;5.40;2.75;;;6.30;99.90;;;;;;5071491;28;20046;-50
2023/12/05 05:33:21;;;;;;;5.57;3.05;;;6.30;99.90;;;;;;5071628;28;20029;-50
2023/12/05 05:35:47;;;;;;;4.55;2.55;;;6.40;99.90;;;;;;5071428;28;20048;-46
2023/12/05 05:38:12;;;;;;;4.90;2.90;;;6.40;99.90;;;;;;5070926;28;20095;-49
2023/12/05 05:40:42;;;;;;;5.25;3.00;;;6.40;99.90;;;;;;5071734;28;20056;-47
2023/12/05 05:43:07;;;;;;;5.47;3.63;;;6.40;99.90;;;;;;5071091;28;20021;-52
2023/12/05 05:45:33;;;;;;;5.03;2.88;;;6.40;99.90;;;;;;5071438;28;20032;-46
2023/12/05 05:47:59;;;;;;;5.18;2.92;;;6.40;99.90;;;;;;5071459;28;20024;-49
2023/12/05 05:50:24;;;;;;;8.95;3.45;;;6.40;99.90;;;;;;5071191;28;20052;-54
2023/12/05 05:52:50;;;;;;;4.22;2.72;;;6.40;99.90;;;;;;5071313;28;20043;-50
2023/12/05 05:55:16;;;;;;;5.47;3.30;;;6.30;99.90;;;;;;5071070;28;20374;-53
2023/12/05 05:57:41;;;;;;;6.65;2.63;;;6.30;99.90;;;;;;5071223;28;20078;-46
2023/12/05 06:00:10;;;;;;;5.60;2.97;;;6.40;99.90;;;;;;5070684;28;20123;-52
2023/12/05 06:02:35;;;;;;;5.22;2.97;;;6.40;99.90;;;;;;5071075;28;20063;-49
2023/12/05 06:05:02;;;;;;;4.65;2.75;;;6.40;99.90;;;;;;5071108;28;20086;-51
2023/12/05 06:07:27;;;;;;;5.03;3.10;;;6.40;99.90;;;;;;5070836;28;20021;-49
2023/12/05 06:09:53;;;;;;;5.45;3.15;;;6.40;99.90;;;;;;5070943;28;20439;-47
2023/12/05 06:12:18;;;;;;;5.22;2.75;;;6.40;99.90;;;;;;5071052;28;20356;-46
2023/12/05 06:14:44;;;;;;;5.18;3.15;;;6.40;99.90;;;;;;5070682;28;20100;-45
2023/12/05 06:17:10;;;;;;;5.38;3.00;;;6.40;99.90;;;;;;5070898;28;20052;-46
2023/12/05 06:19:35;;;;;;;5.82;3.20;;;6.40;99.90;;;;;;5070902;28;20029;-48
2023/12/05 06:22:01;;;;;;;5.28;2.80;;;6.40;99.90;;;;;;5070770;28;20029;-50
2023/12/05 06:24:27;;;;;;;5.97;3.22;;;6.40;99.90;;;;;;5070972;28;20032;-46
2023/12/05 06:26:52;;;;;;;5.28;3.20;;;6.40;99.90;;;;;;5070575;28;20023;-49
2023/12/05 06:29:18;;;;;;;4.70;2.67;;;6.40;99.90;;;;;;5069714;28;20028;-50
2023/12/05 06:31:44;;;;;;;7.72;3.20;;;6.40;99.90;;;;;;5086153;28;20436;-49
2023/12/05 06:34:10;;;;;;;5.82;3.08;;;6.40;99.90;;;;;;5070490;28;20028;-47
2023/12/05 06:36:36;;;;;;;4.90;2.85;;;6.40;99.90;;;;;;5070392;28;20029;-48
2023/12/05 06:39:02;;;;;;;4.57;2.90;;;6.40;99.90;;;;;;5070378;28;20040;-49
2023/12/05 06:41:28;;;;;;;5.65;3.10;;;6.40;99.90;;;;;;5070505;28;20025;-51
2023/12/05 06:43:54;;;;;;;5.65;3.40;;;6.40;99.90;;;;;;5070419;28;20503;-54
2023/12/05 06:46:19;;;;;;;6.18;3.30;;;6.40;99.90;;;;;;5070314;28;20025;-45
2023/12/05 06:48:48;;;;;;;5.38;3.50;;;6.40;99.90;;;;;;5070492;28;20013;-45
2023/12/05 06:51:18;;;;;;;5.57;3.35;;;6.40;99.90;;;;;;5070218;28;20032;-47
2023/12/05 06:53:46;;;;;;;5.65;3.03;;;6.40;99.90;;;;;;5070300;28;20037;-48
2023/12/05 06:56:12;;;;;;;5.15;3.38;;;6.40;99.90;;;;;;5070402;28;20036;-46
2023/12/05 06:58:38;;;;;;;4.95;3.17;;;6.40;99.90;;;;;;5070024;28;20032;-47
2023/12/05 07:01:04;;;;;;;4.50;2.80;;;6.40;99.90;;;;;;5070456;28;20027;-47
2023/12/05 07:03:29;;;;;;;4.95;2.90;;;6.40;99.90;;;;;;5070198;28;20025;-57
2023/12/05 07:05:55;;;;;;;5.13;2.85;;;6.40;99.90;;;;;;5070382;28;20415;-45
2023/12/05 07:08:21;;;;;;;5.95;3.53;;;6.40;99.90;;;;;;5070312;28;20024;-49
2023/12/05 07:10:47;;;;;;;5.43;3.53;;;6.50;99.90;;;;;;5070385;28;20024;-54
2023/12/05 07:13:12;;;;;;;4.72;3.20;;;6.40;99.90;;;;;;5070005;28;20173;-47
2023/12/05 07:15:38;;;;;;;6.40;3.78;;;6.40;99.90;;;;;;5070158;28;20154;-46
2023/12/05 07:18:04;;;;;;;6.60;3.95;;;6.40;99.90;;;;;;5070275;28;20025;-48
2023/12/05 07:20:29;;;;;;;8.10;4.85;;;6.40;99.90;;;;;;5069923;28;20382;-53
2023/12/05 07:22:55;;;;;;;7.88;4.45;;;6.40;99.90;;;;;;5070163;28;20028;-47
2023/12/05 07:25:20;;;;;;;8.13;4.07;;;6.50;99.90;;;;;;5070129;28;20117;-47
2023/12/05 07:27:46;;;;;;;8.70;5.05;;;6.50;99.90;;;;;;5069844;28;20104;-49
2023/12/05 07:30:12;;;;;;;8.70;4.55;;;6.50;99.90;;;;;;5069590;28;20028;-51
2023/12/05 07:32:38;;;;;;;7.97;4.50;;;6.50;99.90;;;;;;5062840;28;20112;-51
2023/12/05 07:35:04;;;;;;;6.80;4.40;;;6.50;99.90;;;;;;5049951;28;20100;-46
2023/12/05 07:37:29;;;;;;;8.98;4.55;;;6.50;99.90;;;;;;5065786;28;20044;-49
2023/12/05 07:39:55;;;;;;;8.20;5.28;;;6.50;99.90;;;;;;5069675;28;20033;-44
2023/12/05 07:42:21;;;;;;;8.70;5.05;;;6.50;99.90;;;;;;5073826;28;20017;-53
2023/12/05 07:44:46;;;;;;;9.27;4.72;;;6.50;99.90;;;;;;5071272;28;20097;-45
2023/12/05 07:47:12;;;;;;;8.68;5.40;;;6.40;99.90;;;;;;5053608;28;20528;-51
2023/12/05 07:49:42;;;;;;;7.65;4.82;;;6.40;99.90;;;;;;5053616;28;20068;-44
2023/12/05 07:52:07;;;;;;;7.90;4.78;;;6.40;99.90;;;;;;5053465;28;20020;-50
2023/12/05 07:54:33;;;;;;;8.50;4.68;;;6.40;99.90;;;;;;5053634;28;20029;-44
2023/12/05 07:56:58;;;;;;;9.13;5.32;;;6.40;99.90;;;;;;5065991;28;20024;-45
2023/12/05 07:59:24;;;;;;;10.00;5.38;;;6.40;99.90;;;;;;5053408;28;20044;-46
2023/12/05 08:01:50;;;;;;;8.82;5.03;;;6.50;99.90;;;;;;5053030;28;20412;-52
2023/12/05 08:04:15;;;;;;;13.68;6.85;;;6.40;99.90;;;;;;5053393;28;20036;-45
2023/12/05 08:06:41;;;;;;;8.70;5.15;;;6.40;99.90;;;;;;5081019;28;20074;-47
2023/12/05 08:09:07;;;;;;;11.18;5.90;;;6.40;99.90;;;;;;5053499;28;20025;-47
2023/12/05 08:11:32;;;;;;;13.02;5.30;;;6.40;99.90;;;;;;5053201;28;20025;-48
2023/12/05 08:13:58;;;;;;;11.80;5.47;;;6.40;99.90;;;;;;5052788;28;20044;-47
2023/12/05 08:16:23;;;;;;;11.40;6.03;;;6.40;99.90;;;;;;5053004;28;20024;-52
2023/12/05 08:18:49;;;;;;;9.60;5.60;;;6.50;99.90;;;;;;5065900;28;20056;-44
2023/12/05 08:21:15;;;;;;;10.55;5.18;;;6.50;99.90;;;;;;5051961;28;20021;-51
2023/12/05 08:23:40;;;;;;;8.32;5.05;;;6.50;99.90;;;;;;5052217;28;20029;-51
2023/12/05 08:26:07;;;;;;;7.20;4.18;;;6.50;99.90;;;;;;5052769;28;20017;-52
2023/12/05 08:28:32;;;;;;;7.93;5.13;;;6.50;99.90;;;;;;5052870;28;20013;-46
2023/12/05 08:30:58;;;;;;;9.02;5.25;;;6.50;99.90;;;;;;5052648;28;20033;-51
2023/12/05 08:33:23;;;;;;;8.18;4.95;;;6.50;99.90;;;;;;5052705;28;20528;-48
2023/12/05 08:35:49;;;;;;;8.65;5.45;;;6.50;99.90;;;;;;5052504;28;20020;-50
2023/12/05 08:38:15;;;;;;;9.25;5.05;;;6.50;99.90;;;;;;5070125;28;20044;-48
2023/12/05 08:40:40;;;;;;;7.65;4.80;;;6.60;99.90;;;;;;5072437;28;20032;-46
2023/12/05 08:43:07;;;;;;;7.32;4.43;;;6.60;99.90;;;;;;4735860;22;20487;31
2023/12/05 08:45:33;;;;;;;10.18;5.28;;;6.60;99.90;;;;;;5028226;28;20057;-52
2023/12/05 08:47:58;;;;;;;8.05;4.90;;;6.70;99.90;;;;;;5032546;28;20383;-51
2023/12/05 08:50:24;;;;;;;7.85;4.63;;;6.60;99.90;;;;;;5031586;28;20060;-47
2023/12/05 08:52:50;;;;;;;8.43;4.93;;;6.60;99.90;;;;;;5028569;28;20093;-48
2023/12/05 08:55:17;;;;;;;10.57;5.22;;;6.60;99.90;;;;;;5031685;28;20420;-47
2023/12/05 08:57:42;;;;;;;8.43;5.18;;;6.60;99.90;;;;;;5032308;28;20021;-48
2023/12/05 09:00:08;;;;;;;8.30;4.93;;;6.60;99.90;;;;;;5030864;28;20405;-50
2023/12/05 09:02:34;;;;;;;9.35;5.00;;;6.60;99.90;;;;;;5022988;28;20113;-50
2023/12/05 09:05:03;;;;;;;8.85;4.82;;;6.60;99.90;;;;;;5031934;28;20104;-50
2023/12/05 09:07:29;;;;;;;8.57;5.00;;;6.60;99.90;;;;;;5032282;28;20100;-51
2023/12/05 09:09:55;;;;;;;8.02;4.78;;;6.60;99.90;;;;;;5032034;28;20108;-53
2023/12/05 09:12:22;;;;;;;8.68;5.28;;;6.60;99.90;;;;;;5031981;28;20354;-46
2023/12/05 09:14:48;;;;;;;10.98;5.55;;;6.60;99.90;;;;;;5032223;28;20498;-51
2023/12/05 09:17:14;;;;;;;13.05;5.47;;;6.60;99.90;;;;;;5031982;28;20065;-48
2023/12/05 09:19:43;;;;;;;8.73;4.97;;;6.60;99.90;;;;;;5021513;28;20037;-47
2023/12/05 09:22:09;;;;;;;9.60;5.20;;;6.60;99.90;;;;;;5031419;28;20065;-48
2023/12/05 09:24:35;;;;;;;8.00;5.40;;;6.70;99.90;;;;;;5031876;28;20060;-46
2023/12/05 09:27:01;;;;;;;8.88;5.13;;;6.70;99.90;;;;;;5031703;28;20424;-51
2023/12/05 09:29:27;;;;;;;8.98;5.15;;;6.70;99.90;;;;;;5031647;28;20041;-49
2023/12/05 09:31:57;;;;;;;9.48;4.60;;;6.70;99.90;;;;;;5031564;28;20108;-50
2023/12/05 09:34:23;;;;;;;9.55;5.45;;;6.70;99.90;;;;;;5031616;28;20485;-48
2023/12/05 09:36:52;;;;;;;9.32;5.38;;;6.70;99.90;;;;;;5031647;28;20075;-50
2023/12/05 09:39:22;;;;;;;10.30;5.60;;;6.70;99.90;;;;;;5025584;28;20470;-45
2023/12/05 09:41:53;;;;;;;;;;;6.70;99.90;;;;;;5031515;28;20034;-56
2023/12/05 09:44:24;;;;;;;10.23;5.50;;;6.70;99.90;;;;;;5031099;28;19917;-48
2023/12/05 09:46:57;;;;;;;10.43;5.97;;;6.70;99.90;;;;;;5031094;28;20401;-45
2023/12/05 09:49:30;;;;;;;10.93;5.75;;;6.70;99.90;;;;;;5031324;28;20033;-46
2023/12/05 09:52:01;;;;;;;10.10;5.25;;;6.70;99.90;;;;;;5026281;28;20026;-45
2023/12/05 09:54:33;;;;;;;11.90;6.25;;;6.70;99.90;;;;;;5022870;28;20030;-50
2023/12/05 09:57:04;;;;;;;10.00;5.40;;;6.80;99.90;;;;;;5013095;28;20044;-47
2023/12/05 09:59:32;;;;;;;9.40;5.60;;;6.80;99.90;;;;;;5031225;28;20029;-51
2023/12/05 10:02:03;;;;;;;9.45;6.22;;;6.90;99.90;;;;;;5030977;28;20044;-47
2023/12/05 10:04:35;;;;;;;9.80;5.82;;;7.00;99.90;;;;;;5031120;28;20060;-46
2023/12/05 10:07:06;;;;;;;10.23;5.85;;;7.10;99.90;;;;;;5030657;28;20091;-47
2023/12/05 10:09:34;;;;;;;8.38;5.55;;;7.10;99.90;;;;;;5031123;28;20026;-54
2023/12/05 10:12:04;;;;;;;8.98;5.57;;;7.20;99.90;;;;;;5030520;28;20055;-47
2023/12/05 10:14:33;;;;;;;10.85;6.00;;;7.30;99.90;;;;;;5030763;28;20032;-45
2023/12/05 10:17:02;;;;;;;8.00;5.38;;;7.40;99.90;;;;;;5030494;28;20544;-45
2023/12/05 10:19:34;;;;;;;10.43;6.40;;;7.50;99.90;;;;;;5030816;28;20049;-49
2023/12/05 10:22:05;;;;;;;7.95;5.75;;;7.50;99.90;;;;;;5029898;28;20029;-48
2023/12/05 10:24:59;;;;;;;9.02;5.53;;;7.60;99.90;;;;;;5018107;28;20079;-45
2023/12/05 10:27:29;;;;;;;10.55;6.25;;;7.70;99.90;;;;;;5027146;28;20068;-46
2023/12/05 10:29:59;;;;;;;10.10;5.55;;;7.60;99.90;;;;;;5030646;28;20060;-48
2023/12/05 10:32:27;;;;;;;;;;;7.70;99.90;;;;;;5030759;28;20048;-49
2023/12/05 10:35:02;;;;;;;9.85;5.57;;;7.80;99.90;;;;;;5030557;28;19909;-46
2023/12/05 10:37:30;;;;;;;12.45;6.55;;;7.90;99.90;;;;;;5030272;28;20062;-47
2023/12/05 10:40:01;;;;;;;11.43;6.35;;;8.00;99.90;;;;;;5030353;28;20029;-53
2023/12/05 10:42:32;;;;;;;10.10;6.20;;;8.10;99.90;;;;;;5030661;28;20021;-46
2023/12/05 10:45:07;;;;;;;8.82;5.78;;;8.30;99.90;;;;;;5030188;28;20429;-50
2023/12/05 10:47:36;;;;;;;10.45;5.78;;;8.70;99.90;;;;;;5030253;28;20071;-48
2023/12/05 10:50:11;;;;;;;9.70;5.93;;;9.00;99.90;;;;;;5030577;28;20477;-49
2023/12/05 10:52:42;;;;;;;8.25;5.13;;;9.00;99.90;;;;;;5020048;28;20113;-50
2023/12/05 10:55:08;;;;;;;7.97;5.35;;;9.20;99.90;;;;;;5027443;28;20041;-50
2023/12/05 10:57:37;;;;;;;7.32;4.80;;;9.10;99.90;;;;;;5030444;28;20021;-48
2023/12/05 11:00:05;;;;;;;9.80;5.32;;;9.10;99.90;;;;;;5030028;28;20037;-46
2023/12/05 11:02:37;;;;;;;7.75;5.18;;;9.10;99.90;;;;;;5018861;28;20048;-49
2023/12/05 11:05:09;;;;;;;9.48;5.10;;;9.00;99.90;;;;;;5030208;28;20026;-50
2023/12/05 11:07:39;;;;;;;9.77;4.97;;;8.60;99.90;;;;;;5030049;28;20021;-48
2023/12/05 11:10:07;;;;;;;8.98;5.20;;;8.40;99.90;;;;;;5030177;28;20490;-47
2023/12/05 11:12:37;;;;;;;10.27;5.32;;;8.40;99.90;;;;;;5030314;28;20041;-52
2023/12/05 11:15:08;;;;;;;9.70;4.97;;;8.50;99.90;;;;;;5030524;28;20036;-49
2023/12/05 11:17:51;;;;;;;13.13;5.63;;;8.40;99.90;;;;;;5034298;28;20056;-48
2023/12/05 11:20:44;;;;;;;10.70;5.28;;;8.50;99.90;;;;;;5034027;28;20035;-47
2023/12/05 11:23:49;;;;;;;12.35;4.78;;;8.50;99.90;;;;;;5034318;28;20010;-49
2023/12/05 11:26:20;;;;;;;9.45;4.63;;;8.30;99.90;;;;;;4934690;29;20059;-47
2023/12/05 11:29:07;;;;;;;9.35;4.72;;;8.20;99.90;;;;;;5018418;28;20552;-47
2023/12/05 11:32:04;;;;;;;11.10;4.47;;;8.10;99.90;;;;;;5033952;28;20033;-51
2023/12/05 11:35:06;;;;;;;9.23;4.57;;;8.00;99.90;;;;;;5033353;28;20067;-54
2023/12/05 11:37:42;;;;;;;8.23;4.90;;;7.80;99.90;;;;;;5030159;28;20021;-48
2023/12/05 11:40:11;;;;;;;8.68;4.88;;;7.80;99.90;;;;;;5033507;28;20398;-48
2023/12/05 11:43:13;;;;;;;9.00;5.00;;;7.70;99.90;;;;;;5033682;28;20014;-45
2023/12/05 11:45:43;;;;;;;8.93;4.32;;;7.80;99.90;;;;;;4994359;28;20082;-49
2023/12/05 11:48:25;;;;;;;6.85;4.28;;;7.80;99.90;;;;;;4994278;28;20081;-44
2023/12/05 11:50:51;;;;;;;6.97;4.10;;;7.80;99.90;;;;;;4994349;28;20022;-45
2023/12/05 11:53:24;;;;;;;9.45;4.32;;;7.80;99.90;;;;;;4994342;28;20192;-48
2023/12/05 11:55:59;;;;;;;8.23;4.40;;;7.70;99.90;;;;;;4994245;28;20026;-52
2023/12/05 11:58:36;;;;;;;9.40;4.70;;;7.70;99.90;;;;;;4993900;28;20026;-50
2023/12/05 12:01:09;;;;;;;7.00;4.20;;;7.80;99.90;;;;;;4994265;28;20168;-46
2023/12/05 12:03:54;;;;;;;9.02;4.60;;;7.70;99.90;;;;;;4993593;28;20027;-49
2023/12/05 12:06:25;;;;;;;8.45;3.97;;;7.60;99.90;;;;;;4993948;28;20030;-49
2023/12/05 12:08:56;;;;;;;8.68;4.60;;;7.60;99.90;;;;;;4993783;28;20095;-49
2023/12/05 12:11:27;;;;;;;7.20;4.35;;;7.60;99.90;;;;;;4984725;28;20225;-51
2023/12/05 12:13:55;;;;;;;7.53;4.20;;;7.70;99.90;;;;;;4993725;28;20097;-51
2023/12/05 12:16:21;;;;;;;8.18;4.55;;;7.70;99.90;;;;;;4993710;28;20109;-49
2023/12/05 12:18:50;;;;;;;6.95;3.97;;;7.60;99.90;;;;;;4993515;28;20436;-50
2023/12/05 12:21:18;;;;;;;7.57;4.55;;;7.50;99.90;;;;;;4993526;28;20125;-47
2023/12/05 12:23:46;;;;;;;8.95;4.38;;;7.50;99.90;;;;;;4993648;28;20032;-50
2023/12/05 12:26:15;;;;;;;9.80;4.45;;;7.40;99.90;;;;;;4993397;28;20049;-52
2023/12/05 12:28:43;;;;;;;13.65;5.07;;;7.30;99.90;;;;;;4992779;28;20034;-49
2023/12/05 12:31:27;;;;;;;8.55;4.43;;;7.20;99.90;;;;;;4993543;28;20030;-52
2023/12/05 12:33:57;;;;;;;9.35;4.57;;;7.20;99.90;;;;;;4993485;28;20494;-51
2023/12/05 12:36:25;;;;;;;9.23;3.72;;;7.30;99.90;;;;;;4992030;28;20014;-53
2023/12/05 12:38:56;;;;;;;11.63;3.90;;;7.30;99.90;;;;;;4993261;28;20129;-52
2023/12/05 12:41:29;;;;;;;8.13;4.47;;;7.30;99.90;;;;;;4993148;28;20022;-48
2023/12/05 12:43:57;;;;;;;8.18;4.47;;;7.30;99.90;;;;;;5004858;28;20049;-46
2023/12/05 12:46:26;;;;;;;14.35;4.50;;;7.30;99.90;;;;;;5032492;28;20112;-50
2023/12/05 12:48:58;;;;;;;8.05;4.05;;;7.40;99.90;;;;;;5032400;28;20026;-47
2023/12/05 12:51:25;;;;;;;6.65;3.70;;;7.30;99.90;;;;;;5031671;28;20029;-44
2023/12/05 12:53:54;;;;;;;6.43;4.10;;;7.40;99.90;;;;;;5019650;28;20018;-46
2023/12/05 12:56:21;;;;;;;8.02;4.15;;;7.30;99.90;;;;;;5032615;28;20385;-46
2023/12/05 12:58:48;;;;;;;10.85;4.68;;;7.20;99.90;;;;;;5014608;28;20461;-49